<?xml version="1.0" encoding="UTF-8" standalone="no" ?>
<gpx xmlns="http://www.topografix.com/GPX/1/1" xmlns:xsi="http://www.w3.org/2001/XMLSchema-instance" xsi:schemaLocation="http://www.topografix.com/GPX/1/1 http://www.topografix.com/GPX/1/1/gpx.xsd" version="1.1" creator="VisuGPX - https://www.visugpx.com">
  <metadata>
    <name>Course à pied le midi</name>
  </metadata>
  <trk>
    <name><![CDATA[Course à pied le midi_1]]></name>
    <trkseg>
      <trkpt lat="43.64485" lon="1.39007">
        <ele>140</ele>
        <time>2025-04-16T10:51:06Z</time>
      </trkpt>
      <trkpt lat="43.64487" lon="1.39001">
        <ele>140</ele>
        <time>2025-04-16T10:51:07Z</time>
      </trkpt>
      <trkpt lat="43.64488" lon="1.38999">
        <ele>140</ele>
        <time>2025-04-16T10:51:08Z</time>
      </trkpt>
      <trkpt lat="43.64488" lon="1.38997">
        <ele>139</ele>
        <time>2025-04-16T10:51:09Z</time>
      </trkpt>
      <trkpt lat="43.64489" lon="1.38994">
        <ele>139</ele>
        <time>2025-04-16T10:51:10Z</time>
      </trkpt>
      <trkpt lat="43.6449" lon="1.38991">
        <ele>139</ele>
        <time>2025-04-16T10:51:11Z</time>
      </trkpt>
      <trkpt lat="43.64492" lon="1.38989">
        <ele>139</ele>
        <time>2025-04-16T10:51:12Z</time>
      </trkpt>
      <trkpt lat="43.64492" lon="1.38985">
        <ele>139</ele>
        <time>2025-04-16T10:51:13Z</time>
      </trkpt>
      <trkpt lat="43.64493" lon="1.38982">
        <ele>139</ele>
        <time>2025-04-16T10:51:14Z</time>
      </trkpt>
      <trkpt lat="43.64493" lon="1.38979">
        <ele>139</ele>
        <time>2025-04-16T10:51:15Z</time>
      </trkpt>
      <trkpt lat="43.64494" lon="1.38976">
        <ele>139</ele>
        <time>2025-04-16T10:51:16Z</time>
      </trkpt>
      <trkpt lat="43.64495" lon="1.38973">
        <ele>139</ele>
        <time>2025-04-16T10:51:17Z</time>
      </trkpt>
      <trkpt lat="43.64495" lon="1.38969">
        <ele>139</ele>
        <time>2025-04-16T10:51:18Z</time>
      </trkpt>
      <trkpt lat="43.64496" lon="1.38966">
        <ele>139</ele>
        <time>2025-04-16T10:51:19Z</time>
      </trkpt>
      <trkpt lat="43.64497" lon="1.38963">
        <ele>139</ele>
        <time>2025-04-16T10:51:20Z</time>
      </trkpt>
      <trkpt lat="43.64498" lon="1.38961">
        <ele>139</ele>
        <time>2025-04-16T10:51:21Z</time>
      </trkpt>
      <trkpt lat="43.64499" lon="1.38958">
        <ele>139</ele>
        <time>2025-04-16T10:51:22Z</time>
      </trkpt>
      <trkpt lat="43.645" lon="1.38955">
        <ele>139</ele>
        <time>2025-04-16T10:51:23Z</time>
      </trkpt>
      <trkpt lat="43.645" lon="1.38952">
        <ele>139</ele>
        <time>2025-04-16T10:51:24Z</time>
      </trkpt>
      <trkpt lat="43.64501" lon="1.38949">
        <ele>139</ele>
        <time>2025-04-16T10:51:25Z</time>
      </trkpt>
      <trkpt lat="43.64502" lon="1.38947">
        <ele>139</ele>
        <time>2025-04-16T10:51:26Z</time>
      </trkpt>
      <trkpt lat="43.64504" lon="1.38944">
        <ele>139</ele>
        <time>2025-04-16T10:51:27Z</time>
      </trkpt>
      <trkpt lat="43.64505" lon="1.38941">
        <ele>139</ele>
        <time>2025-04-16T10:51:28Z</time>
      </trkpt>
      <trkpt lat="43.64506" lon="1.38939">
        <ele>139</ele>
        <time>2025-04-16T10:51:29Z</time>
      </trkpt>
      <trkpt lat="43.64507" lon="1.38936">
        <ele>139</ele>
        <time>2025-04-16T10:51:30Z</time>
      </trkpt>
      <trkpt lat="43.64509" lon="1.38933">
        <ele>139</ele>
        <time>2025-04-16T10:51:31Z</time>
      </trkpt>
      <trkpt lat="43.6451" lon="1.3893">
        <ele>139</ele>
        <time>2025-04-16T10:51:32Z</time>
      </trkpt>
      <trkpt lat="43.64511" lon="1.38927">
        <ele>139</ele>
        <time>2025-04-16T10:51:33Z</time>
      </trkpt>
      <trkpt lat="43.64512" lon="1.38924">
        <ele>139</ele>
        <time>2025-04-16T10:51:34Z</time>
      </trkpt>
      <trkpt lat="43.64512" lon="1.38921">
        <ele>139</ele>
        <time>2025-04-16T10:51:35Z</time>
      </trkpt>
      <trkpt lat="43.64512" lon="1.38919">
        <ele>139</ele>
        <time>2025-04-16T10:51:36Z</time>
      </trkpt>
      <trkpt lat="43.64512" lon="1.38916">
        <ele>139</ele>
        <time>2025-04-16T10:51:37Z</time>
      </trkpt>
      <trkpt lat="43.64512" lon="1.38916">
        <ele>139</ele>
        <time>2025-04-16T10:51:38Z</time>
      </trkpt>
      <trkpt lat="43.64512" lon="1.38911">
        <ele>139</ele>
        <time>2025-04-16T10:51:39Z</time>
      </trkpt>
      <trkpt lat="43.64511" lon="1.38908">
        <ele>139</ele>
        <time>2025-04-16T10:51:40Z</time>
      </trkpt>
      <trkpt lat="43.64511" lon="1.38905">
        <ele>139</ele>
        <time>2025-04-16T10:51:41Z</time>
      </trkpt>
      <trkpt lat="43.6451" lon="1.38902">
        <ele>139</ele>
        <time>2025-04-16T10:51:42Z</time>
      </trkpt>
      <trkpt lat="43.64509" lon="1.389">
        <ele>139</ele>
        <time>2025-04-16T10:51:43Z</time>
      </trkpt>
      <trkpt lat="43.64509" lon="1.38896">
        <ele>139</ele>
        <time>2025-04-16T10:51:44Z</time>
      </trkpt>
      <trkpt lat="43.64509" lon="1.38893">
        <ele>139</ele>
        <time>2025-04-16T10:51:45Z</time>
      </trkpt>
      <trkpt lat="43.64508" lon="1.38889">
        <ele>139</ele>
        <time>2025-04-16T10:51:46Z</time>
      </trkpt>
      <trkpt lat="43.64507" lon="1.38885">
        <ele>139</ele>
        <time>2025-04-16T10:51:47Z</time>
      </trkpt>
      <trkpt lat="43.64507" lon="1.38882">
        <ele>139</ele>
        <time>2025-04-16T10:51:48Z</time>
      </trkpt>
      <trkpt lat="43.64506" lon="1.38879">
        <ele>139</ele>
        <time>2025-04-16T10:51:49Z</time>
      </trkpt>
      <trkpt lat="43.64505" lon="1.38876">
        <ele>139</ele>
        <time>2025-04-16T10:51:50Z</time>
      </trkpt>
      <trkpt lat="43.64505" lon="1.38873">
        <ele>138</ele>
        <time>2025-04-16T10:51:51Z</time>
      </trkpt>
      <trkpt lat="43.64505" lon="1.3887">
        <ele>139</ele>
        <time>2025-04-16T10:51:52Z</time>
      </trkpt>
      <trkpt lat="43.64506" lon="1.38867">
        <ele>139</ele>
        <time>2025-04-16T10:51:53Z</time>
      </trkpt>
      <trkpt lat="43.64507" lon="1.38864">
        <ele>139</ele>
        <time>2025-04-16T10:51:54Z</time>
      </trkpt>
      <trkpt lat="43.64509" lon="1.38861">
        <ele>139</ele>
        <time>2025-04-16T10:51:55Z</time>
      </trkpt>
      <trkpt lat="43.6451" lon="1.38858">
        <ele>139</ele>
        <time>2025-04-16T10:51:56Z</time>
      </trkpt>
      <trkpt lat="43.64511" lon="1.38856">
        <ele>139</ele>
        <time>2025-04-16T10:51:57Z</time>
      </trkpt>
      <trkpt lat="43.64511" lon="1.38856">
        <ele>139</ele>
        <time>2025-04-16T10:51:58Z</time>
      </trkpt>
      <trkpt lat="43.64515" lon="1.38852">
        <ele>139</ele>
        <time>2025-04-16T10:51:59Z</time>
      </trkpt>
      <trkpt lat="43.64516" lon="1.38851">
        <ele>139</ele>
        <time>2025-04-16T10:52:00Z</time>
      </trkpt>
      <trkpt lat="43.64518" lon="1.38849">
        <ele>139</ele>
        <time>2025-04-16T10:52:01Z</time>
      </trkpt>
      <trkpt lat="43.6452" lon="1.38848">
        <ele>139</ele>
        <time>2025-04-16T10:52:02Z</time>
      </trkpt>
      <trkpt lat="43.64522" lon="1.38846">
        <ele>139</ele>
        <time>2025-04-16T10:52:03Z</time>
      </trkpt>
      <trkpt lat="43.64525" lon="1.38846">
        <ele>139</ele>
        <time>2025-04-16T10:52:04Z</time>
      </trkpt>
      <trkpt lat="43.64525" lon="1.38846">
        <ele>139</ele>
        <time>2025-04-16T10:52:05Z</time>
      </trkpt>
      <trkpt lat="43.64531" lon="1.38845">
        <ele>139</ele>
        <time>2025-04-16T10:52:06Z</time>
      </trkpt>
      <trkpt lat="43.64531" lon="1.38845">
        <ele>139</ele>
        <time>2025-04-16T10:52:07Z</time>
      </trkpt>
      <trkpt lat="43.64537" lon="1.38844">
        <ele>139</ele>
        <time>2025-04-16T10:52:08Z</time>
      </trkpt>
      <trkpt lat="43.64539" lon="1.38844">
        <ele>139</ele>
        <time>2025-04-16T10:52:09Z</time>
      </trkpt>
      <trkpt lat="43.64541" lon="1.38843">
        <ele>139</ele>
        <time>2025-04-16T10:52:10Z</time>
      </trkpt>
      <trkpt lat="43.64543" lon="1.38843">
        <ele>139</ele>
        <time>2025-04-16T10:52:11Z</time>
      </trkpt>
      <trkpt lat="43.64544" lon="1.38843">
        <ele>139</ele>
        <time>2025-04-16T10:52:12Z</time>
      </trkpt>
      <trkpt lat="43.64546" lon="1.38842">
        <ele>139</ele>
        <time>2025-04-16T10:52:13Z</time>
      </trkpt>
      <trkpt lat="43.64546" lon="1.38842">
        <ele>139</ele>
        <time>2025-04-16T10:52:14Z</time>
      </trkpt>
      <trkpt lat="43.64549" lon="1.38842">
        <ele>139</ele>
        <time>2025-04-16T10:52:15Z</time>
      </trkpt>
      <trkpt lat="43.64552" lon="1.38842">
        <ele>139</ele>
        <time>2025-04-16T10:52:16Z</time>
      </trkpt>
      <trkpt lat="43.64555" lon="1.38841">
        <ele>139</ele>
        <time>2025-04-16T10:52:17Z</time>
      </trkpt>
      <trkpt lat="43.64555" lon="1.38841">
        <ele>139</ele>
        <time>2025-04-16T10:52:18Z</time>
      </trkpt>
      <trkpt lat="43.6456" lon="1.3884">
        <ele>139</ele>
        <time>2025-04-16T10:52:19Z</time>
      </trkpt>
      <trkpt lat="43.6456" lon="1.3884">
        <ele>139</ele>
        <time>2025-04-16T10:52:20Z</time>
      </trkpt>
      <trkpt lat="43.64563" lon="1.38839">
        <ele>139</ele>
        <time>2025-04-16T10:52:21Z</time>
      </trkpt>
      <trkpt lat="43.64566" lon="1.38839">
        <ele>139</ele>
        <time>2025-04-16T10:52:22Z</time>
      </trkpt>
      <trkpt lat="43.64569" lon="1.38838">
        <ele>139</ele>
        <time>2025-04-16T10:52:23Z</time>
      </trkpt>
      <trkpt lat="43.64572" lon="1.38837">
        <ele>140</ele>
        <time>2025-04-16T10:52:24Z</time>
      </trkpt>
      <trkpt lat="43.64575" lon="1.38838">
        <ele>140</ele>
        <time>2025-04-16T10:52:25Z</time>
      </trkpt>
      <trkpt lat="43.64575" lon="1.38838">
        <ele>140</ele>
        <time>2025-04-16T10:52:26Z</time>
      </trkpt>
      <trkpt lat="43.64581" lon="1.38837">
        <ele>140</ele>
        <time>2025-04-16T10:52:27Z</time>
      </trkpt>
      <trkpt lat="43.64582" lon="1.38837">
        <ele>140</ele>
        <time>2025-04-16T10:52:28Z</time>
      </trkpt>
      <trkpt lat="43.64584" lon="1.38837">
        <ele>140</ele>
        <time>2025-04-16T10:52:29Z</time>
      </trkpt>
      <trkpt lat="43.64586" lon="1.38838">
        <ele>140</ele>
        <time>2025-04-16T10:52:30Z</time>
      </trkpt>
      <trkpt lat="43.64586" lon="1.38838">
        <ele>140</ele>
        <time>2025-04-16T10:52:31Z</time>
      </trkpt>
      <trkpt lat="43.6459" lon="1.38838">
        <ele>140</ele>
        <time>2025-04-16T10:52:32Z</time>
      </trkpt>
      <trkpt lat="43.6459" lon="1.38838">
        <ele>140</ele>
        <time>2025-04-16T10:52:33Z</time>
      </trkpt>
      <trkpt lat="43.64592" lon="1.38838">
        <ele>140</ele>
        <time>2025-04-16T10:52:34Z</time>
      </trkpt>
      <trkpt lat="43.64595" lon="1.38838">
        <ele>140</ele>
        <time>2025-04-16T10:52:35Z</time>
      </trkpt>
      <trkpt lat="43.64597" lon="1.38838">
        <ele>140</ele>
        <time>2025-04-16T10:52:36Z</time>
      </trkpt>
      <trkpt lat="43.64597" lon="1.38838">
        <ele>140</ele>
        <time>2025-04-16T10:52:37Z</time>
      </trkpt>
      <trkpt lat="43.64601" lon="1.38838">
        <ele>141</ele>
        <time>2025-04-16T10:52:38Z</time>
      </trkpt>
      <trkpt lat="43.64603" lon="1.38837">
        <ele>141</ele>
        <time>2025-04-16T10:52:39Z</time>
      </trkpt>
      <trkpt lat="43.64603" lon="1.38837">
        <ele>141</ele>
        <time>2025-04-16T10:52:40Z</time>
      </trkpt>
      <trkpt lat="43.64606" lon="1.38835">
        <ele>141</ele>
        <time>2025-04-16T10:52:41Z</time>
      </trkpt>
      <trkpt lat="43.64609" lon="1.38833">
        <ele>141</ele>
        <time>2025-04-16T10:52:42Z</time>
      </trkpt>
      <trkpt lat="43.64613" lon="1.38831">
        <ele>141</ele>
        <time>2025-04-16T10:52:43Z</time>
      </trkpt>
      <trkpt lat="43.64615" lon="1.38829">
        <ele>141</ele>
        <time>2025-04-16T10:52:44Z</time>
      </trkpt>
      <trkpt lat="43.64615" lon="1.38829">
        <ele>141</ele>
        <time>2025-04-16T10:52:45Z</time>
      </trkpt>
      <trkpt lat="43.64618" lon="1.38828">
        <ele>141</ele>
        <time>2025-04-16T10:52:46Z</time>
      </trkpt>
      <trkpt lat="43.64621" lon="1.38827">
        <ele>141</ele>
        <time>2025-04-16T10:52:47Z</time>
      </trkpt>
      <trkpt lat="43.64623" lon="1.38825">
        <ele>141</ele>
        <time>2025-04-16T10:52:48Z</time>
      </trkpt>
      <trkpt lat="43.64626" lon="1.38824">
        <ele>141</ele>
        <time>2025-04-16T10:52:49Z</time>
      </trkpt>
      <trkpt lat="43.64628" lon="1.38823">
        <ele>141</ele>
        <time>2025-04-16T10:52:50Z</time>
      </trkpt>
      <trkpt lat="43.6463" lon="1.38823">
        <ele>141</ele>
        <time>2025-04-16T10:52:51Z</time>
      </trkpt>
      <trkpt lat="43.64632" lon="1.38822">
        <ele>140</ele>
        <time>2025-04-16T10:52:52Z</time>
      </trkpt>
      <trkpt lat="43.64634" lon="1.38821">
        <ele>141</ele>
        <time>2025-04-16T10:52:53Z</time>
      </trkpt>
      <trkpt lat="43.64637" lon="1.3882">
        <ele>141</ele>
        <time>2025-04-16T10:52:54Z</time>
      </trkpt>
      <trkpt lat="43.64638" lon="1.38819">
        <ele>141</ele>
        <time>2025-04-16T10:52:55Z</time>
      </trkpt>
      <trkpt lat="43.6464" lon="1.38817">
        <ele>141</ele>
        <time>2025-04-16T10:52:56Z</time>
      </trkpt>
      <trkpt lat="43.64642" lon="1.38816">
        <ele>141</ele>
        <time>2025-04-16T10:52:57Z</time>
      </trkpt>
      <trkpt lat="43.64644" lon="1.38814">
        <ele>141</ele>
        <time>2025-04-16T10:52:58Z</time>
      </trkpt>
      <trkpt lat="43.64649" lon="1.38811">
        <ele>140</ele>
        <time>2025-04-16T10:52:59Z</time>
      </trkpt>
      <trkpt lat="43.6465" lon="1.3881">
        <ele>139</ele>
        <time>2025-04-16T10:53:00Z</time>
      </trkpt>
      <trkpt lat="43.64653" lon="1.38811">
        <ele>139</ele>
        <time>2025-04-16T10:53:01Z</time>
      </trkpt>
      <trkpt lat="43.64653" lon="1.38811">
        <ele>139</ele>
        <time>2025-04-16T10:53:02Z</time>
      </trkpt>
      <trkpt lat="43.64655" lon="1.38811">
        <ele>139</ele>
        <time>2025-04-16T10:53:03Z</time>
      </trkpt>
      <trkpt lat="43.64658" lon="1.3881">
        <ele>139</ele>
        <time>2025-04-16T10:53:04Z</time>
      </trkpt>
      <trkpt lat="43.64661" lon="1.3881">
        <ele>139</ele>
        <time>2025-04-16T10:53:05Z</time>
      </trkpt>
      <trkpt lat="43.64663" lon="1.3881">
        <ele>139</ele>
        <time>2025-04-16T10:53:06Z</time>
      </trkpt>
      <trkpt lat="43.64666" lon="1.3881">
        <ele>139</ele>
        <time>2025-04-16T10:53:07Z</time>
      </trkpt>
      <trkpt lat="43.64668" lon="1.38809">
        <ele>139</ele>
        <time>2025-04-16T10:53:08Z</time>
      </trkpt>
      <trkpt lat="43.6467" lon="1.38808">
        <ele>139</ele>
        <time>2025-04-16T10:53:09Z</time>
      </trkpt>
      <trkpt lat="43.64673" lon="1.38808">
        <ele>139</ele>
        <time>2025-04-16T10:53:10Z</time>
      </trkpt>
      <trkpt lat="43.64675" lon="1.38807">
        <ele>139</ele>
        <time>2025-04-16T10:53:11Z</time>
      </trkpt>
      <trkpt lat="43.64677" lon="1.38806">
        <ele>139</ele>
        <time>2025-04-16T10:53:12Z</time>
      </trkpt>
      <trkpt lat="43.64679" lon="1.38804">
        <ele>139</ele>
        <time>2025-04-16T10:53:13Z</time>
      </trkpt>
      <trkpt lat="43.64681" lon="1.38803">
        <ele>139</ele>
        <time>2025-04-16T10:53:14Z</time>
      </trkpt>
      <trkpt lat="43.64683" lon="1.38802">
        <ele>140</ele>
        <time>2025-04-16T10:53:15Z</time>
      </trkpt>
      <trkpt lat="43.64685" lon="1.388">
        <ele>140</ele>
        <time>2025-04-16T10:53:16Z</time>
      </trkpt>
      <trkpt lat="43.64687" lon="1.38799">
        <ele>140</ele>
        <time>2025-04-16T10:53:17Z</time>
      </trkpt>
      <trkpt lat="43.64689" lon="1.38797">
        <ele>140</ele>
        <time>2025-04-16T10:53:18Z</time>
      </trkpt>
      <trkpt lat="43.64691" lon="1.38796">
        <ele>139</ele>
        <time>2025-04-16T10:53:19Z</time>
      </trkpt>
      <trkpt lat="43.64694" lon="1.38794">
        <ele>139</ele>
        <time>2025-04-16T10:53:20Z</time>
      </trkpt>
      <trkpt lat="43.64697" lon="1.38793">
        <ele>139</ele>
        <time>2025-04-16T10:53:21Z</time>
      </trkpt>
      <trkpt lat="43.647" lon="1.38791">
        <ele>139</ele>
        <time>2025-04-16T10:53:22Z</time>
      </trkpt>
      <trkpt lat="43.64703" lon="1.38789">
        <ele>139</ele>
        <time>2025-04-16T10:53:23Z</time>
      </trkpt>
      <trkpt lat="43.64705" lon="1.38788">
        <ele>140</ele>
        <time>2025-04-16T10:53:24Z</time>
      </trkpt>
      <trkpt lat="43.64708" lon="1.38786">
        <ele>140</ele>
        <time>2025-04-16T10:53:25Z</time>
      </trkpt>
      <trkpt lat="43.6471" lon="1.38785">
        <ele>140</ele>
        <time>2025-04-16T10:53:26Z</time>
      </trkpt>
      <trkpt lat="43.64713" lon="1.38783">
        <ele>140</ele>
        <time>2025-04-16T10:53:27Z</time>
      </trkpt>
      <trkpt lat="43.64715" lon="1.38781">
        <ele>139</ele>
        <time>2025-04-16T10:53:28Z</time>
      </trkpt>
      <trkpt lat="43.64717" lon="1.38779">
        <ele>139</ele>
        <time>2025-04-16T10:53:29Z</time>
      </trkpt>
      <trkpt lat="43.6472" lon="1.38777">
        <ele>139</ele>
        <time>2025-04-16T10:53:30Z</time>
      </trkpt>
      <trkpt lat="43.64722" lon="1.38776">
        <ele>140</ele>
        <time>2025-04-16T10:53:31Z</time>
      </trkpt>
      <trkpt lat="43.64725" lon="1.38775">
        <ele>140</ele>
        <time>2025-04-16T10:53:32Z</time>
      </trkpt>
      <trkpt lat="43.64726" lon="1.38773">
        <ele>140</ele>
        <time>2025-04-16T10:53:33Z</time>
      </trkpt>
      <trkpt lat="43.64729" lon="1.38772">
        <ele>140</ele>
        <time>2025-04-16T10:53:34Z</time>
      </trkpt>
      <trkpt lat="43.64731" lon="1.38772">
        <ele>140</ele>
        <time>2025-04-16T10:53:35Z</time>
      </trkpt>
      <trkpt lat="43.64733" lon="1.38771">
        <ele>139</ele>
        <time>2025-04-16T10:53:36Z</time>
      </trkpt>
      <trkpt lat="43.64735" lon="1.38769">
        <ele>139</ele>
        <time>2025-04-16T10:53:37Z</time>
      </trkpt>
      <trkpt lat="43.64737" lon="1.38768">
        <ele>139</ele>
        <time>2025-04-16T10:53:38Z</time>
      </trkpt>
      <trkpt lat="43.64739" lon="1.38767">
        <ele>139</ele>
        <time>2025-04-16T10:53:39Z</time>
      </trkpt>
      <trkpt lat="43.64741" lon="1.38766">
        <ele>139</ele>
        <time>2025-04-16T10:53:40Z</time>
      </trkpt>
      <trkpt lat="43.64743" lon="1.38764">
        <ele>140</ele>
        <time>2025-04-16T10:53:41Z</time>
      </trkpt>
      <trkpt lat="43.64745" lon="1.38762">
        <ele>140</ele>
        <time>2025-04-16T10:53:42Z</time>
      </trkpt>
      <trkpt lat="43.64747" lon="1.3876">
        <ele>140</ele>
        <time>2025-04-16T10:53:43Z</time>
      </trkpt>
      <trkpt lat="43.6475" lon="1.38758">
        <ele>140</ele>
        <time>2025-04-16T10:53:44Z</time>
      </trkpt>
      <trkpt lat="43.64752" lon="1.38756">
        <ele>140</ele>
        <time>2025-04-16T10:53:45Z</time>
      </trkpt>
      <trkpt lat="43.64754" lon="1.38755">
        <ele>139</ele>
        <time>2025-04-16T10:53:46Z</time>
      </trkpt>
      <trkpt lat="43.64756" lon="1.38754">
        <ele>139</ele>
        <time>2025-04-16T10:53:47Z</time>
      </trkpt>
      <trkpt lat="43.64758" lon="1.38754">
        <ele>139</ele>
        <time>2025-04-16T10:53:48Z</time>
      </trkpt>
      <trkpt lat="43.64761" lon="1.38753">
        <ele>139</ele>
        <time>2025-04-16T10:53:49Z</time>
      </trkpt>
      <trkpt lat="43.64763" lon="1.38751">
        <ele>139</ele>
        <time>2025-04-16T10:53:50Z</time>
      </trkpt>
      <trkpt lat="43.64765" lon="1.3875">
        <ele>139</ele>
        <time>2025-04-16T10:53:51Z</time>
      </trkpt>
      <trkpt lat="43.64767" lon="1.38749">
        <ele>139</ele>
        <time>2025-04-16T10:53:52Z</time>
      </trkpt>
      <trkpt lat="43.6477" lon="1.38748">
        <ele>139</ele>
        <time>2025-04-16T10:53:53Z</time>
      </trkpt>
      <trkpt lat="43.64772" lon="1.38746">
        <ele>139</ele>
        <time>2025-04-16T10:53:54Z</time>
      </trkpt>
      <trkpt lat="43.64773" lon="1.38744">
        <ele>139</ele>
        <time>2025-04-16T10:53:55Z</time>
      </trkpt>
      <trkpt lat="43.64776" lon="1.38742">
        <ele>139</ele>
        <time>2025-04-16T10:53:56Z</time>
      </trkpt>
      <trkpt lat="43.64778" lon="1.38741">
        <ele>139</ele>
        <time>2025-04-16T10:53:57Z</time>
      </trkpt>
      <trkpt lat="43.64781" lon="1.3874">
        <ele>139</ele>
        <time>2025-04-16T10:53:58Z</time>
      </trkpt>
      <trkpt lat="43.64784" lon="1.38739">
        <ele>138</ele>
        <time>2025-04-16T10:53:59Z</time>
      </trkpt>
      <trkpt lat="43.64786" lon="1.38737">
        <ele>139</ele>
        <time>2025-04-16T10:54:00Z</time>
      </trkpt>
      <trkpt lat="43.64788" lon="1.38735">
        <ele>139</ele>
        <time>2025-04-16T10:54:01Z</time>
      </trkpt>
      <trkpt lat="43.6479" lon="1.38734">
        <ele>138</ele>
        <time>2025-04-16T10:54:02Z</time>
      </trkpt>
      <trkpt lat="43.64793" lon="1.38732">
        <ele>138</ele>
        <time>2025-04-16T10:54:03Z</time>
      </trkpt>
      <trkpt lat="43.64795" lon="1.3873">
        <ele>138</ele>
        <time>2025-04-16T10:54:04Z</time>
      </trkpt>
      <trkpt lat="43.64797" lon="1.38728">
        <ele>139</ele>
        <time>2025-04-16T10:54:05Z</time>
      </trkpt>
      <trkpt lat="43.648" lon="1.38726">
        <ele>139</ele>
        <time>2025-04-16T10:54:06Z</time>
      </trkpt>
      <trkpt lat="43.64802" lon="1.38725">
        <ele>139</ele>
        <time>2025-04-16T10:54:07Z</time>
      </trkpt>
      <trkpt lat="43.64804" lon="1.38724">
        <ele>139</ele>
        <time>2025-04-16T10:54:08Z</time>
      </trkpt>
      <trkpt lat="43.64806" lon="1.38723">
        <ele>139</ele>
        <time>2025-04-16T10:54:09Z</time>
      </trkpt>
      <trkpt lat="43.64808" lon="1.38721">
        <ele>139</ele>
        <time>2025-04-16T10:54:10Z</time>
      </trkpt>
      <trkpt lat="43.6481" lon="1.3872">
        <ele>139</ele>
        <time>2025-04-16T10:54:11Z</time>
      </trkpt>
      <trkpt lat="43.64812" lon="1.38718">
        <ele>139</ele>
        <time>2025-04-16T10:54:12Z</time>
      </trkpt>
      <trkpt lat="43.64814" lon="1.38716">
        <ele>139</ele>
        <time>2025-04-16T10:54:13Z</time>
      </trkpt>
      <trkpt lat="43.64816" lon="1.38713">
        <ele>139</ele>
        <time>2025-04-16T10:54:14Z</time>
      </trkpt>
      <trkpt lat="43.64818" lon="1.38711">
        <ele>139</ele>
        <time>2025-04-16T10:54:15Z</time>
      </trkpt>
      <trkpt lat="43.6482" lon="1.3871">
        <ele>139</ele>
        <time>2025-04-16T10:54:16Z</time>
      </trkpt>
      <trkpt lat="43.64822" lon="1.38708">
        <ele>139</ele>
        <time>2025-04-16T10:54:17Z</time>
      </trkpt>
      <trkpt lat="43.64825" lon="1.38706">
        <ele>139</ele>
        <time>2025-04-16T10:54:18Z</time>
      </trkpt>
      <trkpt lat="43.64827" lon="1.38704">
        <ele>139</ele>
        <time>2025-04-16T10:54:19Z</time>
      </trkpt>
      <trkpt lat="43.6483" lon="1.38703">
        <ele>139</ele>
        <time>2025-04-16T10:54:20Z</time>
      </trkpt>
      <trkpt lat="43.6483" lon="1.38703">
        <ele>139</ele>
        <time>2025-04-16T10:54:21Z</time>
      </trkpt>
      <trkpt lat="43.64835" lon="1.38701">
        <ele>139</ele>
        <time>2025-04-16T10:54:22Z</time>
      </trkpt>
      <trkpt lat="43.64835" lon="1.38701">
        <ele>139</ele>
        <time>2025-04-16T10:54:23Z</time>
      </trkpt>
      <trkpt lat="43.64836" lon="1.387">
        <ele>139</ele>
        <time>2025-04-16T10:54:24Z</time>
      </trkpt>
      <trkpt lat="43.64837" lon="1.38699">
        <ele>139</ele>
        <time>2025-04-16T10:54:25Z</time>
      </trkpt>
      <trkpt lat="43.64839" lon="1.38699">
        <ele>139</ele>
        <time>2025-04-16T10:54:26Z</time>
      </trkpt>
      <trkpt lat="43.64844" lon="1.38694">
        <ele>139</ele>
        <time>2025-04-16T10:54:27Z</time>
      </trkpt>
      <trkpt lat="43.64845" lon="1.38693">
        <ele>140</ele>
        <time>2025-04-16T10:54:28Z</time>
      </trkpt>
      <trkpt lat="43.64847" lon="1.38691">
        <ele>140</ele>
        <time>2025-04-16T10:54:29Z</time>
      </trkpt>
      <trkpt lat="43.64849" lon="1.3869">
        <ele>140</ele>
        <time>2025-04-16T10:54:30Z</time>
      </trkpt>
      <trkpt lat="43.64849" lon="1.3869">
        <ele>140</ele>
        <time>2025-04-16T10:54:31Z</time>
      </trkpt>
      <trkpt lat="43.64854" lon="1.38687">
        <ele>140</ele>
        <time>2025-04-16T10:54:32Z</time>
      </trkpt>
      <trkpt lat="43.64855" lon="1.38686">
        <ele>140</ele>
        <time>2025-04-16T10:54:33Z</time>
      </trkpt>
      <trkpt lat="43.64855" lon="1.38686">
        <ele>140</ele>
        <time>2025-04-16T10:54:34Z</time>
      </trkpt>
      <trkpt lat="43.64858" lon="1.38684">
        <ele>140</ele>
        <time>2025-04-16T10:54:35Z</time>
      </trkpt>
      <trkpt lat="43.64861" lon="1.38682">
        <ele>140</ele>
        <time>2025-04-16T10:54:36Z</time>
      </trkpt>
      <trkpt lat="43.64864" lon="1.3868">
        <ele>140</ele>
        <time>2025-04-16T10:54:37Z</time>
      </trkpt>
      <trkpt lat="43.64867" lon="1.38677">
        <ele>140</ele>
        <time>2025-04-16T10:54:38Z</time>
      </trkpt>
      <trkpt lat="43.64869" lon="1.38676">
        <ele>140</ele>
        <time>2025-04-16T10:54:39Z</time>
      </trkpt>
      <trkpt lat="43.64872" lon="1.38674">
        <ele>139</ele>
        <time>2025-04-16T10:54:40Z</time>
      </trkpt>
      <trkpt lat="43.64874" lon="1.38672">
        <ele>139</ele>
        <time>2025-04-16T10:54:41Z</time>
      </trkpt>
      <trkpt lat="43.64876" lon="1.38671">
        <ele>139</ele>
        <time>2025-04-16T10:54:42Z</time>
      </trkpt>
      <trkpt lat="43.64879" lon="1.38669">
        <ele>140</ele>
        <time>2025-04-16T10:54:43Z</time>
      </trkpt>
      <trkpt lat="43.64881" lon="1.38668">
        <ele>140</ele>
        <time>2025-04-16T10:54:44Z</time>
      </trkpt>
      <trkpt lat="43.64883" lon="1.38667">
        <ele>140</ele>
        <time>2025-04-16T10:54:45Z</time>
      </trkpt>
      <trkpt lat="43.64885" lon="1.38665">
        <ele>139</ele>
        <time>2025-04-16T10:54:46Z</time>
      </trkpt>
      <trkpt lat="43.64885" lon="1.38665">
        <ele>139</ele>
        <time>2025-04-16T10:54:47Z</time>
      </trkpt>
      <trkpt lat="43.64891" lon="1.38661">
        <ele>139</ele>
        <time>2025-04-16T10:54:48Z</time>
      </trkpt>
      <trkpt lat="43.64892" lon="1.38659">
        <ele>139</ele>
        <time>2025-04-16T10:54:49Z</time>
      </trkpt>
      <trkpt lat="43.64894" lon="1.38658">
        <ele>139</ele>
        <time>2025-04-16T10:54:50Z</time>
      </trkpt>
      <trkpt lat="43.64896" lon="1.38657">
        <ele>139</ele>
        <time>2025-04-16T10:54:51Z</time>
      </trkpt>
      <trkpt lat="43.64898" lon="1.38656">
        <ele>139</ele>
        <time>2025-04-16T10:54:52Z</time>
      </trkpt>
      <trkpt lat="43.649" lon="1.38655">
        <ele>139</ele>
        <time>2025-04-16T10:54:53Z</time>
      </trkpt>
      <trkpt lat="43.64903" lon="1.38654">
        <ele>139</ele>
        <time>2025-04-16T10:54:54Z</time>
      </trkpt>
      <trkpt lat="43.64906" lon="1.38652">
        <ele>139</ele>
        <time>2025-04-16T10:54:55Z</time>
      </trkpt>
      <trkpt lat="43.64906" lon="1.38652">
        <ele>139</ele>
        <time>2025-04-16T10:54:56Z</time>
      </trkpt>
      <trkpt lat="43.64913" lon="1.38646">
        <ele>139</ele>
        <time>2025-04-16T10:54:57Z</time>
      </trkpt>
      <trkpt lat="43.64914" lon="1.38645">
        <ele>139</ele>
        <time>2025-04-16T10:54:58Z</time>
      </trkpt>
      <trkpt lat="43.64917" lon="1.38644">
        <ele>139</ele>
        <time>2025-04-16T10:54:59Z</time>
      </trkpt>
      <trkpt lat="43.6492" lon="1.38643">
        <ele>139</ele>
        <time>2025-04-16T10:55:00Z</time>
      </trkpt>
      <trkpt lat="43.64922" lon="1.38642">
        <ele>139</ele>
        <time>2025-04-16T10:55:01Z</time>
      </trkpt>
      <trkpt lat="43.64924" lon="1.38641">
        <ele>139</ele>
        <time>2025-04-16T10:55:02Z</time>
      </trkpt>
      <trkpt lat="43.64926" lon="1.38639">
        <ele>139</ele>
        <time>2025-04-16T10:55:03Z</time>
      </trkpt>
      <trkpt lat="43.64927" lon="1.38638">
        <ele>139</ele>
        <time>2025-04-16T10:55:04Z</time>
      </trkpt>
      <trkpt lat="43.6493" lon="1.38636">
        <ele>139</ele>
        <time>2025-04-16T10:55:05Z</time>
      </trkpt>
      <trkpt lat="43.64932" lon="1.38635">
        <ele>139</ele>
        <time>2025-04-16T10:55:06Z</time>
      </trkpt>
      <trkpt lat="43.64933" lon="1.38634">
        <ele>139</ele>
        <time>2025-04-16T10:55:07Z</time>
      </trkpt>
      <trkpt lat="43.64935" lon="1.38632">
        <ele>139</ele>
        <time>2025-04-16T10:55:08Z</time>
      </trkpt>
      <trkpt lat="43.64938" lon="1.38632">
        <ele>139</ele>
        <time>2025-04-16T10:55:09Z</time>
      </trkpt>
      <trkpt lat="43.6494" lon="1.38631">
        <ele>139</ele>
        <time>2025-04-16T10:55:10Z</time>
      </trkpt>
      <trkpt lat="43.64942" lon="1.38629">
        <ele>139</ele>
        <time>2025-04-16T10:55:11Z</time>
      </trkpt>
      <trkpt lat="43.64943" lon="1.38627">
        <ele>139</ele>
        <time>2025-04-16T10:55:12Z</time>
      </trkpt>
      <trkpt lat="43.64945" lon="1.38625">
        <ele>139</ele>
        <time>2025-04-16T10:55:13Z</time>
      </trkpt>
      <trkpt lat="43.64948" lon="1.38623">
        <ele>139</ele>
        <time>2025-04-16T10:55:14Z</time>
      </trkpt>
      <trkpt lat="43.6495" lon="1.38621">
        <ele>139</ele>
        <time>2025-04-16T10:55:15Z</time>
      </trkpt>
      <trkpt lat="43.64952" lon="1.3862">
        <ele>139</ele>
        <time>2025-04-16T10:55:16Z</time>
      </trkpt>
      <trkpt lat="43.64955" lon="1.3862">
        <ele>139</ele>
        <time>2025-04-16T10:55:17Z</time>
      </trkpt>
      <trkpt lat="43.64957" lon="1.38619">
        <ele>139</ele>
        <time>2025-04-16T10:55:18Z</time>
      </trkpt>
      <trkpt lat="43.64959" lon="1.38618">
        <ele>139</ele>
        <time>2025-04-16T10:55:19Z</time>
      </trkpt>
      <trkpt lat="43.64962" lon="1.38617">
        <ele>139</ele>
        <time>2025-04-16T10:55:20Z</time>
      </trkpt>
      <trkpt lat="43.64964" lon="1.38616">
        <ele>139</ele>
        <time>2025-04-16T10:55:21Z</time>
      </trkpt>
      <trkpt lat="43.64967" lon="1.38616">
        <ele>139</ele>
        <time>2025-04-16T10:55:22Z</time>
      </trkpt>
      <trkpt lat="43.64969" lon="1.38614">
        <ele>139</ele>
        <time>2025-04-16T10:55:23Z</time>
      </trkpt>
      <trkpt lat="43.64971" lon="1.38612">
        <ele>139</ele>
        <time>2025-04-16T10:55:24Z</time>
      </trkpt>
      <trkpt lat="43.64973" lon="1.38611">
        <ele>139</ele>
        <time>2025-04-16T10:55:25Z</time>
      </trkpt>
      <trkpt lat="43.64973" lon="1.38611">
        <ele>139</ele>
        <time>2025-04-16T10:55:26Z</time>
      </trkpt>
      <trkpt lat="43.6498" lon="1.38608">
        <ele>139</ele>
        <time>2025-04-16T10:55:27Z</time>
      </trkpt>
      <trkpt lat="43.64981" lon="1.38607">
        <ele>139</ele>
        <time>2025-04-16T10:55:28Z</time>
      </trkpt>
      <trkpt lat="43.64981" lon="1.38607">
        <ele>139</ele>
        <time>2025-04-16T10:55:29Z</time>
      </trkpt>
      <trkpt lat="43.64984" lon="1.38606">
        <ele>139</ele>
        <time>2025-04-16T10:55:30Z</time>
      </trkpt>
      <trkpt lat="43.64987" lon="1.38604">
        <ele>139</ele>
        <time>2025-04-16T10:55:31Z</time>
      </trkpt>
      <trkpt lat="43.6499" lon="1.38602">
        <ele>139</ele>
        <time>2025-04-16T10:55:32Z</time>
      </trkpt>
      <trkpt lat="43.64993" lon="1.386">
        <ele>139</ele>
        <time>2025-04-16T10:55:33Z</time>
      </trkpt>
      <trkpt lat="43.64996" lon="1.38597">
        <ele>138</ele>
        <time>2025-04-16T10:55:34Z</time>
      </trkpt>
      <trkpt lat="43.64998" lon="1.38595">
        <ele>138</ele>
        <time>2025-04-16T10:55:35Z</time>
      </trkpt>
      <trkpt lat="43.65" lon="1.38593">
        <ele>138</ele>
        <time>2025-04-16T10:55:36Z</time>
      </trkpt>
      <trkpt lat="43.65003" lon="1.38591">
        <ele>138</ele>
        <time>2025-04-16T10:55:37Z</time>
      </trkpt>
      <trkpt lat="43.65005" lon="1.3859">
        <ele>138</ele>
        <time>2025-04-16T10:55:38Z</time>
      </trkpt>
      <trkpt lat="43.65007" lon="1.38588">
        <ele>138</ele>
        <time>2025-04-16T10:55:39Z</time>
      </trkpt>
      <trkpt lat="43.65009" lon="1.38586">
        <ele>138</ele>
        <time>2025-04-16T10:55:40Z</time>
      </trkpt>
      <trkpt lat="43.65012" lon="1.38585">
        <ele>138</ele>
        <time>2025-04-16T10:55:41Z</time>
      </trkpt>
      <trkpt lat="43.65014" lon="1.38583">
        <ele>139</ele>
        <time>2025-04-16T10:55:42Z</time>
      </trkpt>
      <trkpt lat="43.65016" lon="1.38582">
        <ele>139</ele>
        <time>2025-04-16T10:55:43Z</time>
      </trkpt>
      <trkpt lat="43.65019" lon="1.38581">
        <ele>139</ele>
        <time>2025-04-16T10:55:44Z</time>
      </trkpt>
      <trkpt lat="43.65021" lon="1.3858">
        <ele>139</ele>
        <time>2025-04-16T10:55:45Z</time>
      </trkpt>
      <trkpt lat="43.65023" lon="1.38579">
        <ele>139</ele>
        <time>2025-04-16T10:55:46Z</time>
      </trkpt>
      <trkpt lat="43.65026" lon="1.38578">
        <ele>139</ele>
        <time>2025-04-16T10:55:47Z</time>
      </trkpt>
      <trkpt lat="43.65028" lon="1.38577">
        <ele>139</ele>
        <time>2025-04-16T10:55:48Z</time>
      </trkpt>
      <trkpt lat="43.6503" lon="1.38576">
        <ele>139</ele>
        <time>2025-04-16T10:55:49Z</time>
      </trkpt>
      <trkpt lat="43.65032" lon="1.38575">
        <ele>139</ele>
        <time>2025-04-16T10:55:50Z</time>
      </trkpt>
      <trkpt lat="43.65034" lon="1.38574">
        <ele>139</ele>
        <time>2025-04-16T10:55:51Z</time>
      </trkpt>
      <trkpt lat="43.65036" lon="1.38573">
        <ele>139</ele>
        <time>2025-04-16T10:55:52Z</time>
      </trkpt>
      <trkpt lat="43.65038" lon="1.38571">
        <ele>139</ele>
        <time>2025-04-16T10:55:53Z</time>
      </trkpt>
      <trkpt lat="43.6504" lon="1.38569">
        <ele>139</ele>
        <time>2025-04-16T10:55:54Z</time>
      </trkpt>
      <trkpt lat="43.65042" lon="1.38568">
        <ele>139</ele>
        <time>2025-04-16T10:55:55Z</time>
      </trkpt>
      <trkpt lat="43.65044" lon="1.38566">
        <ele>139</ele>
        <time>2025-04-16T10:55:56Z</time>
      </trkpt>
      <trkpt lat="43.65047" lon="1.38564">
        <ele>139</ele>
        <time>2025-04-16T10:55:57Z</time>
      </trkpt>
      <trkpt lat="43.65049" lon="1.38563">
        <ele>139</ele>
        <time>2025-04-16T10:55:58Z</time>
      </trkpt>
      <trkpt lat="43.65052" lon="1.38562">
        <ele>139</ele>
        <time>2025-04-16T10:55:59Z</time>
      </trkpt>
      <trkpt lat="43.65054" lon="1.38561">
        <ele>139</ele>
        <time>2025-04-16T10:56:00Z</time>
      </trkpt>
      <trkpt lat="43.65056" lon="1.3856">
        <ele>139</ele>
        <time>2025-04-16T10:56:01Z</time>
      </trkpt>
      <trkpt lat="43.65058" lon="1.38559">
        <ele>139</ele>
        <time>2025-04-16T10:56:02Z</time>
      </trkpt>
      <trkpt lat="43.6506" lon="1.38558">
        <ele>139</ele>
        <time>2025-04-16T10:56:03Z</time>
      </trkpt>
      <trkpt lat="43.65062" lon="1.38556">
        <ele>139</ele>
        <time>2025-04-16T10:56:04Z</time>
      </trkpt>
      <trkpt lat="43.65064" lon="1.38555">
        <ele>139</ele>
        <time>2025-04-16T10:56:05Z</time>
      </trkpt>
      <trkpt lat="43.65064" lon="1.38555">
        <ele>139</ele>
        <time>2025-04-16T10:56:06Z</time>
      </trkpt>
      <trkpt lat="43.65067" lon="1.38554">
        <ele>139</ele>
        <time>2025-04-16T10:56:07Z</time>
      </trkpt>
      <trkpt lat="43.65069" lon="1.38553">
        <ele>139</ele>
        <time>2025-04-16T10:56:08Z</time>
      </trkpt>
      <trkpt lat="43.65071" lon="1.38552">
        <ele>139</ele>
        <time>2025-04-16T10:56:09Z</time>
      </trkpt>
      <trkpt lat="43.65073" lon="1.38552">
        <ele>139</ele>
        <time>2025-04-16T10:56:10Z</time>
      </trkpt>
      <trkpt lat="43.65076" lon="1.38551">
        <ele>139</ele>
        <time>2025-04-16T10:56:11Z</time>
      </trkpt>
      <trkpt lat="43.65078" lon="1.38549">
        <ele>139</ele>
        <time>2025-04-16T10:56:12Z</time>
      </trkpt>
      <trkpt lat="43.6508" lon="1.38549">
        <ele>139</ele>
        <time>2025-04-16T10:56:13Z</time>
      </trkpt>
      <trkpt lat="43.65082" lon="1.38548">
        <ele>139</ele>
        <time>2025-04-16T10:56:14Z</time>
      </trkpt>
      <trkpt lat="43.65084" lon="1.38546">
        <ele>139</ele>
        <time>2025-04-16T10:56:15Z</time>
      </trkpt>
      <trkpt lat="43.65086" lon="1.38544">
        <ele>138</ele>
        <time>2025-04-16T10:56:16Z</time>
      </trkpt>
      <trkpt lat="43.65088" lon="1.38541">
        <ele>138</ele>
        <time>2025-04-16T10:56:17Z</time>
      </trkpt>
      <trkpt lat="43.6509" lon="1.38538">
        <ele>138</ele>
        <time>2025-04-16T10:56:18Z</time>
      </trkpt>
      <trkpt lat="43.65091" lon="1.38535">
        <ele>138</ele>
        <time>2025-04-16T10:56:19Z</time>
      </trkpt>
      <trkpt lat="43.65092" lon="1.38531">
        <ele>138</ele>
        <time>2025-04-16T10:56:20Z</time>
      </trkpt>
      <trkpt lat="43.65092" lon="1.38527">
        <ele>138</ele>
        <time>2025-04-16T10:56:21Z</time>
      </trkpt>
      <trkpt lat="43.65093" lon="1.38523">
        <ele>138</ele>
        <time>2025-04-16T10:56:22Z</time>
      </trkpt>
      <trkpt lat="43.65094" lon="1.3852">
        <ele>139</ele>
        <time>2025-04-16T10:56:23Z</time>
      </trkpt>
      <trkpt lat="43.65096" lon="1.38517">
        <ele>139</ele>
        <time>2025-04-16T10:56:24Z</time>
      </trkpt>
      <trkpt lat="43.65097" lon="1.38514">
        <ele>139</ele>
        <time>2025-04-16T10:56:25Z</time>
      </trkpt>
      <trkpt lat="43.65099" lon="1.3851">
        <ele>139</ele>
        <time>2025-04-16T10:56:26Z</time>
      </trkpt>
      <trkpt lat="43.65099" lon="1.38507">
        <ele>139</ele>
        <time>2025-04-16T10:56:27Z</time>
      </trkpt>
      <trkpt lat="43.65099" lon="1.38503">
        <ele>139</ele>
        <time>2025-04-16T10:56:28Z</time>
      </trkpt>
      <trkpt lat="43.65099" lon="1.38503">
        <ele>139</ele>
        <time>2025-04-16T10:56:29Z</time>
      </trkpt>
      <trkpt lat="43.65098" lon="1.38495">
        <ele>139</ele>
        <time>2025-04-16T10:56:30Z</time>
      </trkpt>
      <trkpt lat="43.65097" lon="1.38494">
        <ele>139</ele>
        <time>2025-04-16T10:56:31Z</time>
      </trkpt>
      <trkpt lat="43.65097" lon="1.38491">
        <ele>139</ele>
        <time>2025-04-16T10:56:32Z</time>
      </trkpt>
      <trkpt lat="43.65095" lon="1.38489">
        <ele>139</ele>
        <time>2025-04-16T10:56:33Z</time>
      </trkpt>
      <trkpt lat="43.65095" lon="1.38486">
        <ele>139</ele>
        <time>2025-04-16T10:56:34Z</time>
      </trkpt>
      <trkpt lat="43.65094" lon="1.38483">
        <ele>139</ele>
        <time>2025-04-16T10:56:35Z</time>
      </trkpt>
      <trkpt lat="43.65093" lon="1.3848">
        <ele>139</ele>
        <time>2025-04-16T10:56:36Z</time>
      </trkpt>
      <trkpt lat="43.65093" lon="1.38478">
        <ele>139</ele>
        <time>2025-04-16T10:56:37Z</time>
      </trkpt>
      <trkpt lat="43.65092" lon="1.38475">
        <ele>139</ele>
        <time>2025-04-16T10:56:38Z</time>
      </trkpt>
      <trkpt lat="43.65091" lon="1.38472">
        <ele>139</ele>
        <time>2025-04-16T10:56:39Z</time>
      </trkpt>
      <trkpt lat="43.65091" lon="1.38469">
        <ele>139</ele>
        <time>2025-04-16T10:56:40Z</time>
      </trkpt>
      <trkpt lat="43.6509" lon="1.38466">
        <ele>139</ele>
        <time>2025-04-16T10:56:41Z</time>
      </trkpt>
      <trkpt lat="43.65089" lon="1.38463">
        <ele>139</ele>
        <time>2025-04-16T10:56:42Z</time>
      </trkpt>
      <trkpt lat="43.65088" lon="1.38461">
        <ele>139</ele>
        <time>2025-04-16T10:56:43Z</time>
      </trkpt>
      <trkpt lat="43.65087" lon="1.38458">
        <ele>139</ele>
        <time>2025-04-16T10:56:44Z</time>
      </trkpt>
      <trkpt lat="43.65086" lon="1.38455">
        <ele>139</ele>
        <time>2025-04-16T10:56:45Z</time>
      </trkpt>
      <trkpt lat="43.65084" lon="1.38451">
        <ele>139</ele>
        <time>2025-04-16T10:56:46Z</time>
      </trkpt>
      <trkpt lat="43.65083" lon="1.38448">
        <ele>139</ele>
        <time>2025-04-16T10:56:47Z</time>
      </trkpt>
      <trkpt lat="43.65082" lon="1.38445">
        <ele>139</ele>
        <time>2025-04-16T10:56:48Z</time>
      </trkpt>
      <trkpt lat="43.65081" lon="1.38441">
        <ele>139</ele>
        <time>2025-04-16T10:56:49Z</time>
      </trkpt>
      <trkpt lat="43.6508" lon="1.38438">
        <ele>139</ele>
        <time>2025-04-16T10:56:50Z</time>
      </trkpt>
      <trkpt lat="43.65079" lon="1.38435">
        <ele>139</ele>
        <time>2025-04-16T10:56:51Z</time>
      </trkpt>
      <trkpt lat="43.65078" lon="1.38431">
        <ele>139</ele>
        <time>2025-04-16T10:56:52Z</time>
      </trkpt>
      <trkpt lat="43.65077" lon="1.38428">
        <ele>139</ele>
        <time>2025-04-16T10:56:53Z</time>
      </trkpt>
      <trkpt lat="43.65076" lon="1.38424">
        <ele>139</ele>
        <time>2025-04-16T10:56:54Z</time>
      </trkpt>
      <trkpt lat="43.65076" lon="1.38421">
        <ele>139</ele>
        <time>2025-04-16T10:56:55Z</time>
      </trkpt>
      <trkpt lat="43.65076" lon="1.38417">
        <ele>139</ele>
        <time>2025-04-16T10:56:56Z</time>
      </trkpt>
      <trkpt lat="43.65075" lon="1.38414">
        <ele>139</ele>
        <time>2025-04-16T10:56:57Z</time>
      </trkpt>
      <trkpt lat="43.65074" lon="1.38411">
        <ele>139</ele>
        <time>2025-04-16T10:56:58Z</time>
      </trkpt>
      <trkpt lat="43.65073" lon="1.38408">
        <ele>139</ele>
        <time>2025-04-16T10:56:59Z</time>
      </trkpt>
      <trkpt lat="43.65072" lon="1.38405">
        <ele>139</ele>
        <time>2025-04-16T10:57:00Z</time>
      </trkpt>
      <trkpt lat="43.65071" lon="1.38401">
        <ele>138</ele>
        <time>2025-04-16T10:57:01Z</time>
      </trkpt>
      <trkpt lat="43.6507" lon="1.38398">
        <ele>138</ele>
        <time>2025-04-16T10:57:02Z</time>
      </trkpt>
      <trkpt lat="43.65069" lon="1.38396">
        <ele>139</ele>
        <time>2025-04-16T10:57:03Z</time>
      </trkpt>
      <trkpt lat="43.65068" lon="1.38393">
        <ele>139</ele>
        <time>2025-04-16T10:57:04Z</time>
      </trkpt>
      <trkpt lat="43.65067" lon="1.3839">
        <ele>139</ele>
        <time>2025-04-16T10:57:05Z</time>
      </trkpt>
      <trkpt lat="43.65066" lon="1.38387">
        <ele>139</ele>
        <time>2025-04-16T10:57:06Z</time>
      </trkpt>
      <trkpt lat="43.65064" lon="1.38383">
        <ele>139</ele>
        <time>2025-04-16T10:57:07Z</time>
      </trkpt>
      <trkpt lat="43.65063" lon="1.38381">
        <ele>139</ele>
        <time>2025-04-16T10:57:08Z</time>
      </trkpt>
      <trkpt lat="43.65062" lon="1.38378">
        <ele>139</ele>
        <time>2025-04-16T10:57:09Z</time>
      </trkpt>
      <trkpt lat="43.6506" lon="1.38374">
        <ele>139</ele>
        <time>2025-04-16T10:57:10Z</time>
      </trkpt>
      <trkpt lat="43.65059" lon="1.38371">
        <ele>139</ele>
        <time>2025-04-16T10:57:11Z</time>
      </trkpt>
      <trkpt lat="43.65058" lon="1.38368">
        <ele>139</ele>
        <time>2025-04-16T10:57:12Z</time>
      </trkpt>
      <trkpt lat="43.65057" lon="1.38364">
        <ele>139</ele>
        <time>2025-04-16T10:57:13Z</time>
      </trkpt>
      <trkpt lat="43.65056" lon="1.38361">
        <ele>139</ele>
        <time>2025-04-16T10:57:14Z</time>
      </trkpt>
      <trkpt lat="43.65055" lon="1.38359">
        <ele>139</ele>
        <time>2025-04-16T10:57:15Z</time>
      </trkpt>
      <trkpt lat="43.65054" lon="1.38356">
        <ele>139</ele>
        <time>2025-04-16T10:57:16Z</time>
      </trkpt>
      <trkpt lat="43.65054" lon="1.38352">
        <ele>139</ele>
        <time>2025-04-16T10:57:17Z</time>
      </trkpt>
      <trkpt lat="43.65053" lon="1.38348">
        <ele>139</ele>
        <time>2025-04-16T10:57:18Z</time>
      </trkpt>
      <trkpt lat="43.65052" lon="1.38345">
        <ele>139</ele>
        <time>2025-04-16T10:57:19Z</time>
      </trkpt>
      <trkpt lat="43.65051" lon="1.38341">
        <ele>139</ele>
        <time>2025-04-16T10:57:20Z</time>
      </trkpt>
      <trkpt lat="43.6505" lon="1.38338">
        <ele>139</ele>
        <time>2025-04-16T10:57:21Z</time>
      </trkpt>
      <trkpt lat="43.65049" lon="1.38335">
        <ele>139</ele>
        <time>2025-04-16T10:57:22Z</time>
      </trkpt>
      <trkpt lat="43.65048" lon="1.38332">
        <ele>139</ele>
        <time>2025-04-16T10:57:23Z</time>
      </trkpt>
      <trkpt lat="43.65047" lon="1.38329">
        <ele>139</ele>
        <time>2025-04-16T10:57:24Z</time>
      </trkpt>
      <trkpt lat="43.65046" lon="1.38326">
        <ele>139</ele>
        <time>2025-04-16T10:57:25Z</time>
      </trkpt>
      <trkpt lat="43.65045" lon="1.38323">
        <ele>139</ele>
        <time>2025-04-16T10:57:26Z</time>
      </trkpt>
      <trkpt lat="43.65044" lon="1.38319">
        <ele>139</ele>
        <time>2025-04-16T10:57:27Z</time>
      </trkpt>
      <trkpt lat="43.65043" lon="1.38316">
        <ele>139</ele>
        <time>2025-04-16T10:57:28Z</time>
      </trkpt>
      <trkpt lat="43.65042" lon="1.38313">
        <ele>139</ele>
        <time>2025-04-16T10:57:29Z</time>
      </trkpt>
      <trkpt lat="43.65041" lon="1.3831">
        <ele>139</ele>
        <time>2025-04-16T10:57:30Z</time>
      </trkpt>
      <trkpt lat="43.65039" lon="1.38307">
        <ele>139</ele>
        <time>2025-04-16T10:57:31Z</time>
      </trkpt>
      <trkpt lat="43.65038" lon="1.38304">
        <ele>139</ele>
        <time>2025-04-16T10:57:32Z</time>
      </trkpt>
      <trkpt lat="43.65037" lon="1.38301">
        <ele>139</ele>
        <time>2025-04-16T10:57:33Z</time>
      </trkpt>
      <trkpt lat="43.65036" lon="1.38298">
        <ele>139</ele>
        <time>2025-04-16T10:57:34Z</time>
      </trkpt>
      <trkpt lat="43.65035" lon="1.38295">
        <ele>139</ele>
        <time>2025-04-16T10:57:35Z</time>
      </trkpt>
      <trkpt lat="43.65034" lon="1.38292">
        <ele>139</ele>
        <time>2025-04-16T10:57:36Z</time>
      </trkpt>
      <trkpt lat="43.65033" lon="1.38289">
        <ele>139</ele>
        <time>2025-04-16T10:57:37Z</time>
      </trkpt>
      <trkpt lat="43.65032" lon="1.38286">
        <ele>139</ele>
        <time>2025-04-16T10:57:38Z</time>
      </trkpt>
      <trkpt lat="43.65031" lon="1.38282">
        <ele>139</ele>
        <time>2025-04-16T10:57:39Z</time>
      </trkpt>
      <trkpt lat="43.6503" lon="1.38279">
        <ele>139</ele>
        <time>2025-04-16T10:57:40Z</time>
      </trkpt>
      <trkpt lat="43.6503" lon="1.38276">
        <ele>139</ele>
        <time>2025-04-16T10:57:41Z</time>
      </trkpt>
      <trkpt lat="43.65029" lon="1.38273">
        <ele>139</ele>
        <time>2025-04-16T10:57:42Z</time>
      </trkpt>
      <trkpt lat="43.65028" lon="1.3827">
        <ele>139</ele>
        <time>2025-04-16T10:57:43Z</time>
      </trkpt>
      <trkpt lat="43.65027" lon="1.38266">
        <ele>139</ele>
        <time>2025-04-16T10:57:44Z</time>
      </trkpt>
      <trkpt lat="43.65026" lon="1.38263">
        <ele>139</ele>
        <time>2025-04-16T10:57:45Z</time>
      </trkpt>
      <trkpt lat="43.65025" lon="1.3826">
        <ele>139</ele>
        <time>2025-04-16T10:57:46Z</time>
      </trkpt>
      <trkpt lat="43.65024" lon="1.38257">
        <ele>139</ele>
        <time>2025-04-16T10:57:47Z</time>
      </trkpt>
      <trkpt lat="43.65023" lon="1.38253">
        <ele>139</ele>
        <time>2025-04-16T10:57:48Z</time>
      </trkpt>
      <trkpt lat="43.65022" lon="1.3825">
        <ele>139</ele>
        <time>2025-04-16T10:57:49Z</time>
      </trkpt>
      <trkpt lat="43.65021" lon="1.38248">
        <ele>139</ele>
        <time>2025-04-16T10:57:50Z</time>
      </trkpt>
      <trkpt lat="43.6502" lon="1.38245">
        <ele>139</ele>
        <time>2025-04-16T10:57:51Z</time>
      </trkpt>
      <trkpt lat="43.6502" lon="1.38242">
        <ele>139</ele>
        <time>2025-04-16T10:57:52Z</time>
      </trkpt>
      <trkpt lat="43.65019" lon="1.38238">
        <ele>139</ele>
        <time>2025-04-16T10:57:53Z</time>
      </trkpt>
      <trkpt lat="43.65018" lon="1.38235">
        <ele>139</ele>
        <time>2025-04-16T10:57:54Z</time>
      </trkpt>
      <trkpt lat="43.65018" lon="1.38232">
        <ele>139</ele>
        <time>2025-04-16T10:57:55Z</time>
      </trkpt>
      <trkpt lat="43.65017" lon="1.38229">
        <ele>139</ele>
        <time>2025-04-16T10:57:56Z</time>
      </trkpt>
      <trkpt lat="43.65016" lon="1.38226">
        <ele>139</ele>
        <time>2025-04-16T10:57:57Z</time>
      </trkpt>
      <trkpt lat="43.65015" lon="1.38223">
        <ele>139</ele>
        <time>2025-04-16T10:57:58Z</time>
      </trkpt>
      <trkpt lat="43.65014" lon="1.3822">
        <ele>139</ele>
        <time>2025-04-16T10:57:59Z</time>
      </trkpt>
      <trkpt lat="43.65012" lon="1.38217">
        <ele>139</ele>
        <time>2025-04-16T10:58:00Z</time>
      </trkpt>
      <trkpt lat="43.65011" lon="1.38214">
        <ele>139</ele>
        <time>2025-04-16T10:58:01Z</time>
      </trkpt>
      <trkpt lat="43.65009" lon="1.3821">
        <ele>139</ele>
        <time>2025-04-16T10:58:02Z</time>
      </trkpt>
      <trkpt lat="43.65008" lon="1.38207">
        <ele>139</ele>
        <time>2025-04-16T10:58:03Z</time>
      </trkpt>
      <trkpt lat="43.65007" lon="1.38203">
        <ele>139</ele>
        <time>2025-04-16T10:58:04Z</time>
      </trkpt>
      <trkpt lat="43.65006" lon="1.382">
        <ele>139</ele>
        <time>2025-04-16T10:58:05Z</time>
      </trkpt>
      <trkpt lat="43.65005" lon="1.38198">
        <ele>139</ele>
        <time>2025-04-16T10:58:06Z</time>
      </trkpt>
      <trkpt lat="43.65003" lon="1.38196">
        <ele>139</ele>
        <time>2025-04-16T10:58:07Z</time>
      </trkpt>
      <trkpt lat="43.65001" lon="1.38193">
        <ele>139</ele>
        <time>2025-04-16T10:58:08Z</time>
      </trkpt>
      <trkpt lat="43.64998" lon="1.38191">
        <ele>139</ele>
        <time>2025-04-16T10:58:09Z</time>
      </trkpt>
      <trkpt lat="43.64996" lon="1.38188">
        <ele>139</ele>
        <time>2025-04-16T10:58:10Z</time>
      </trkpt>
      <trkpt lat="43.64994" lon="1.38185">
        <ele>139</ele>
        <time>2025-04-16T10:58:11Z</time>
      </trkpt>
      <trkpt lat="43.64992" lon="1.38182">
        <ele>139</ele>
        <time>2025-04-16T10:58:12Z</time>
      </trkpt>
      <trkpt lat="43.64992" lon="1.38179">
        <ele>139</ele>
        <time>2025-04-16T10:58:13Z</time>
      </trkpt>
      <trkpt lat="43.64992" lon="1.38179">
        <ele>139</ele>
        <time>2025-04-16T10:58:14Z</time>
      </trkpt>
    </trkseg>
  </trk>
</gpx>